Terminal Aerodrome Forecast
Issued by NWS Wilmington, OH

Home | Current Version | Previous Version | Text Only | Print | Product List | Glossary On
Versions: 1 2 3 4 5 6 7 8 9 10 11 12 13 14 15 16 17 18 19 20 21
000
FTUS41 KILN 212330
TAFILN
TAF
KILN 212330Z 2200/2224 03010KT P6SM -RA VCSH OVC008
     FM220100 03012KT 6SM -SHRA OVC007
     FM220200 03012KT 5SM SHRA OVC006
     FM221400 05011KT 3SM -SHRA OVC007
     FM221800 05009KT P6SM VCSH OVC005
     FM222300 07006KT P6SM OVC018=

USA.gov is the U.S. government's official web portal to all federal, state and local government web resources and services.